Time;durP1;ratioP1;P1;durP2;ratioP2;P2;SDS_P1;SDS_P2;PMS_P1;PMS_P2;Temp;Humidity;BMP_temperature;BMP_pressure;BME280_temperature;BME280_humidity;BME280_pressure;Samples;Min_cycle;Max_cycle;Signal;HPM_P1;HPM_P2
2024/01/12 00:01:21;;;;;;;10.27;9.97;;;-4.50;99.90;;;;;;6227080;23;20191;-80
2024/01/12 00:03:48;;;;;;;10.40;10.10;;;-4.50;99.90;;;;;;6227020;23;20250;-80
2024/01/12 00:06:16;;;;;;;10.27;9.97;;;-4.50;99.90;;;;;;6227094;23;20281;-80
2024/01/12 00:08:43;;;;;;;10.13;9.83;;;-4.60;99.90;;;;;;6233386;23;20214;-80
2024/01/12 00:11:11;;;;;;;10.70;10.40;;;-4.50;99.90;;;;;;6233248;23;20218;-79
2024/01/12 00:13:39;;;;;;;10.73;10.43;;;-4.60;99.90;;;;;;6231580;23;20242;-80
2024/01/12 00:16:07;;;;;;;11.10;10.80;;;-4.70;99.90;;;;;;6228970;23;20195;-79
2024/01/12 00:18:35;;;;;;;10.87;10.57;;;-4.80;99.90;;;;;;6238893;22;20213;-79
2024/01/12 00:21:02;;;;;;;10.77;10.47;;;-4.80;99.90;;;;;;6235332;23;20209;-79
2024/01/12 00:23:30;;;;;;;10.60;10.30;;;-4.80;99.90;;;;;;6233601;23;20293;-79
2024/01/12 00:25:59;;;;;;;10.27;9.97;;;-4.70;99.90;;;;;;6232065;23;20202;-79
2024/01/12 00:28:27;;;;;;;10.53;10.23;;;-4.70;99.90;;;;;;6229826;22;20202;-80
2024/01/12 00:30:59;;;;;;;10.57;10.27;;;-4.60;99.90;;;;;;6231333;23;20203;-80
2024/01/12 00:33:27;;;;;;;10.20;9.90;;;-4.50;99.90;;;;;;6229160;23;20233;-79
2024/01/12 00:35:55;;;;;;;10.60;10.30;;;-4.50;99.90;;;;;;6228490;23;20210;-79
2024/01/12 00:38:22;;;;;;;10.57;10.27;;;-4.50;99.90;;;;;;6227618;22;20207;-80
2024/01/12 00:40:49;;;;;;;10.27;9.97;;;-4.50;99.90;;;;;;6228020;23;20198;-80
2024/01/12 00:43:17;;;;;;;10.90;10.60;;;-4.40;99.90;;;;;;6228702;23;20242;-80
2024/01/12 00:45:44;;;;;;;11.53;11.13;;;-4.60;99.90;;;;;;6228265;23;20257;-80
2024/01/12 00:48:13;;;;;;;11.07;10.73;;;-4.80;99.90;;;;;;6228407;22;20207;-80
2024/01/12 00:50:42;;;;;;;11.23;10.83;;;-4.90;99.90;;;;;;6229433;23;20269;-81
2024/01/12 00:53:09;;;;;;;11.37;10.97;;;-5.00;99.90;;;;;;6229465;23;20223;-80
2024/01/12 00:55:36;;;;;;;10.43;10.13;;;-5.00;99.90;;;;;;6231379;23;20198;-80
2024/01/12 00:58:04;;;;;;;10.63;10.33;;;-4.90;99.90;;;;;;6232309;22;20229;-80
2024/01/12 01:00:31;;;;;;;11.07;10.73;;;-4.80;99.90;;;;;;6231377;23;20211;-80
2024/01/12 01:03:01;;;;;;;10.60;10.30;;;-4.70;99.90;;;;;;6235243;23;20225;-80
2024/01/12 01:05:30;;;;;;;10.63;10.33;;;-4.60;99.90;;;;;;6236388;23;20218;-80
2024/01/12 01:07:57;;;;;;;10.97;10.67;;;-4.60;99.90;;;;;;6235957;22;20228;-80
2024/01/12 01:10:25;;;;;;;10.33;10.03;;;-4.50;99.90;;;;;;6240165;23;20203;-79
2024/01/12 01:12:53;;;;;;;10.47;10.17;;;-4.50;99.90;;;;;;6235779;23;20961;-80
2024/01/12 01:15:20;;;;;;;10.57;10.27;;;-4.40;99.90;;;;;;6233957;23;20191;-80
2024/01/12 01:17:48;;;;;;;10.90;10.60;;;-4.40;99.90;;;;;;6232330;22;20203;-79
2024/01/12 01:20:16;;;;;;;10.83;10.53;;;-4.40;99.90;;;;;;6229109;23;20195;-80
2024/01/12 01:22:45;;;;;;;10.70;10.40;;;-4.40;99.90;;;;;;6229342;23;20281;-80
2024/01/12 01:25:12;;;;;;;10.83;10.53;;;-4.40;99.90;;;;;;6229826;23;20208;-80
2024/01/12 01:27:39;;;;;;;10.77;10.47;;;-4.40;99.90;;;;;;6229183;22;20205;-80
2024/01/12 01:30:08;;;;;;;10.40;10.10;;;-4.40;99.90;;;;;;6228450;23;20206;-80
2024/01/12 01:32:36;;;;;;;10.90;10.60;;;-4.30;99.90;;;;;;6227531;23;20194;-79
2024/01/12 01:35:03;;;;;;;10.47;10.17;;;-4.30;99.90;;;;;;6228416;23;20261;-80
2024/01/12 01:37:30;;;;;;;10.43;10.13;;;-4.30;99.90;;;;;;6228368;22;20203;-80
2024/01/12 01:40:01;;;;;;;10.70;10.40;;;-4.30;99.90;;;;;;6227772;23;20199;-80
2024/01/12 01:42:28;;;;;;;10.80;10.50;;;-4.30;99.90;;;;;;6239283;23;20179;-80
2024/01/12 01:44:55;;;;;;;10.53;10.23;;;-4.30;99.90;;;;;;6242202;23;20214;-80
2024/01/12 01:47:23;;;;;;;10.83;10.53;;;-4.30;99.90;;;;;;6241577;22;20203;-80
2024/01/12 01:49:51;;;;;;;10.83;10.53;;;-4.40;99.90;;;;;;6245987;23;20197;-80
2024/01/12 01:52:18;;;;;;;10.80;10.50;;;-4.30;99.90;;;;;;6246795;23;20246;-80
2024/01/12 01:54:46;;;;;;;10.70;10.40;;;-4.30;99.90;;;;;;6246070;23;20190;-79
2024/01/12 01:57:15;;;;;;;10.90;10.60;;;-4.20;99.90;;;;;;6241544;22;20203;-80
2024/01/12 01:59:43;;;;;;;10.67;10.37;;;-4.20;99.90;;;;;;6233025;23;20213;-80
2024/01/12 02:02:10;;;;;;;10.67;10.37;;;-4.20;99.90;;;;;;6232210;23;20198;-81
2024/01/12 02:04:37;;;;;;;10.50;10.20;;;-4.30;99.90;;;;;;6232223;23;20206;-80
2024/01/12 02:07:05;;;;;;;10.73;10.43;;;-4.20;99.90;;;;;;6228668;22;20199;-80
2024/01/12 02:09:32;;;;;;;10.73;10.43;;;-4.20;99.90;;;;;;6229382;23;20190;-80
2024/01/12 02:12:00;;;;;;;10.90;10.60;;;-4.20;99.90;;;;;;6229529;23;20210;-80
2024/01/12 02:14:28;;;;;;;11.30;10.90;;;-4.10;99.90;;;;;;6229601;23;20204;-80
2024/01/12 02:16:56;;;;;;;10.70;10.40;;;-4.00;99.90;;;;;;6230689;22;20206;-80
2024/01/12 02:19:23;;;;;;;10.83;10.53;;;-4.00;99.90;;;;;;6229636;23;20199;-80
2024/01/12 02:21:52;;;;;;;10.60;10.30;;;-3.90;99.90;;;;;;6229054;23;20199;-80
2024/01/12 02:24:19;;;;;;;10.53;10.23;;;-3.90;99.90;;;;;;6229856;23;20261;-81
2024/01/12 02:26:47;;;;;;;11.30;10.90;;;-3.80;99.90;;;;;;6229512;22;20291;-80
2024/01/12 02:29:14;;;;;;;11.17;10.77;;;-3.80;99.90;;;;;;6229279;23;20191;-80
2024/01/12 02:31:42;;;;;;;10.90;10.60;;;-3.80;99.90;;;;;;6229307;23;20203;-80
2024/01/12 02:34:09;;;;;;;10.90;10.60;;;-3.70;99.90;;;;;;6229763;23;20226;-80
2024/01/12 02:36:36;;;;;;;10.70;10.40;;;-3.60;99.90;;;;;;6228957;22;20203;-79
2024/01/12 02:39:05;;;;;;;10.77;10.47;;;-3.60;99.90;;;;;;6233899;23;20230;-80
2024/01/12 02:41:32;;;;;;;10.57;10.27;;;-3.40;99.90;;;;;;6230064;23;20999;-80
2024/01/12 02:44:00;;;;;;;10.60;10.30;;;-3.40;99.90;;;;;;6230086;23;20249;-80
2024/01/12 02:46:27;;;;;;;10.97;10.67;;;-3.40;99.90;;;;;;6229088;22;20196;-80
2024/01/12 02:48:54;;;;;;;11.20;10.80;;;-3.50;99.90;;;;;;6228776;23;20198;-80
2024/01/12 02:51:22;;;;;;;11.33;10.93;;;-3.50;99.90;;;;;;6228491;23;20198;-80
2024/01/12 02:53:49;;;;;;;11.27;10.87;;;-3.50;99.90;;;;;;6228818;23;20195;-80
2024/01/12 02:56:18;;;;;;;10.63;10.33;;;-3.50;99.90;;;;;;6229628;23;20206;-80
2024/01/12 02:58:45;;;;;;;10.57;10.27;;;-3.50;99.90;;;;;;6228556;23;20198;-80
2024/01/12 03:01:12;;;;;;;10.80;10.50;;;-3.40;99.90;;;;;;6228661;23;20203;-80
2024/01/12 03:03:40;;;;;;;10.60;10.30;;;-3.40;99.90;;;;;;6228475;23;20213;-80
2024/01/12 03:06:08;;;;;;;10.63;10.33;;;-3.40;99.90;;;;;;6228531;23;20195;-79
2024/01/12 03:08:35;;;;;;;10.70;10.40;;;-3.30;99.90;;;;;;6228591;22;20209;-80
2024/01/12 03:11:02;;;;;;;10.87;10.57;;;-3.30;99.90;;;;;;6228476;23;20206;-80
2024/01/12 03:13:33;;;;;;;10.77;10.47;;;-3.30;99.90;;;;;;6228877;23;20204;-80
2024/01/12 03:16:00;;;;;;;10.80;10.50;;;-3.20;99.90;;;;;;6228697;23;20210;-80
2024/01/12 03:18:28;;;;;;;10.67;10.37;;;-3.10;99.90;;;;;;6229738;22;20739;-80
2024/01/12 03:20:56;;;;;;;10.27;9.97;;;-3.00;99.90;;;;;;6231625;23;20254;-80
2024/01/12 03:23:23;;;;;;;10.67;10.37;;;-2.90;99.90;;;;;;6245188;22;20203;-79
2024/01/12 03:25:50;;;;;;;10.63;10.33;;;-2.90;99.90;;;;;;6249930;22;20197;-79
2024/01/12 03:28:18;;;;;;;10.60;10.30;;;-2.80;99.90;;;;;;6249700;22;20191;-79
2024/01/12 03:30:46;;;;;;;10.40;10.10;;;-2.80;99.90;;;;;;6249352;22;20179;-79
2024/01/12 03:33:14;;;;;;;10.43;10.13;;;-2.80;99.90;;;;;;6249778;22;20210;-79
2024/01/12 03:35:41;;;;;;;10.20;9.90;;;-2.80;99.90;;;;;;6249630;22;20230;-79
2024/01/12 03:38:12;;;;;;;10.00;9.70;;;-2.80;99.90;;;;;;6249626;22;20763;-79
2024/01/12 03:40:39;;;;;;;10.20;9.90;;;-2.70;99.90;;;;;;6249384;22;20202;-80
2024/01/12 03:43:07;;;;;;;10.23;9.93;;;-2.70;99.90;;;;;;6249684;22;20183;-79
2024/01/12 03:45:34;;;;;;;10.43;10.13;;;-2.60;99.90;;;;;;6249513;22;20195;-79
2024/01/12 03:48:03;;;;;;;10.50;10.20;;;-2.60;99.90;;;;;;6249316;22;20218;-78
2024/01/12 03:50:30;;;;;;;10.23;9.93;;;-2.50;99.90;;;;;;6249154;22;20175;-79
2024/01/12 03:52:57;;;;;;;10.37;10.07;;;-2.50;99.90;;;;;;6249544;22;20227;-79
2024/01/12 03:55:24;;;;;;;10.27;9.97;;;-2.50;99.90;;;;;;6249525;22;20183;-79
2024/01/12 03:57:52;;;;;;;10.03;9.73;;;-2.50;99.90;;;;;;6250272;22;20191;-80
2024/01/12 04:00:19;;;;;;;10.30;10.00;;;-2.50;99.90;;;;;;6249781;22;20196;-80
2024/01/12 04:02:47;;;;;;;10.23;9.93;;;-2.50;99.90;;;;;;6230086;23;20195;-81
2024/01/12 04:05:16;;;;;;;10.30;10.00;;;-2.40;99.90;;;;;;6230069;23;20198;-80
2024/01/12 04:07:43;;;;;;;10.47;10.17;;;-2.50;99.90;;;;;;6229718;22;20199;-81
2024/01/12 04:10:10;;;;;;;10.67;10.37;;;-2.50;99.90;;;;;;6229454;23;20195;-80
2024/01/12 04:12:39;;;;;;;10.53;10.23;;;-2.60;99.90;;;;;;6229553;23;20198;-81
2024/01/12 04:15:08;;;;;;;10.23;9.93;;;-2.70;99.90;;;;;;6229259;23;20195;-80
2024/01/12 04:17:36;;;;;;;10.97;10.67;;;-2.60;99.90;;;;;;6229481;22;20205;-80
2024/01/12 04:20:04;;;;;;;10.60;10.30;;;-2.60;99.90;;;;;;6228418;23;20205;-80
2024/01/12 04:22:33;;;;;;;10.80;10.50;;;-2.50;99.90;;;;;;6229242;23;20207;-80
2024/01/12 04:25:00;;;;;;;10.47;10.17;;;-2.50;99.90;;;;;;6231192;23;20274;-80
2024/01/12 04:27:29;;;;;;;10.50;10.20;;;-2.50;99.90;;;;;;6230415;22;20206;-81
2024/01/12 04:29:56;;;;;;;10.83;10.53;;;-2.50;99.90;;;;;;6236637;23;20254;-81
2024/01/12 04:32:23;;;;;;;10.83;10.53;;;-2.50;99.90;;;;;;6235036;23;20209;-80
2024/01/12 04:34:51;;;;;;;10.83;10.53;;;-2.40;99.90;;;;;;6233020;23;20202;-80
2024/01/12 04:37:18;;;;;;;10.87;10.57;;;-2.40;99.90;;;;;;6232651;22;20210;-81
2024/01/12 04:39:47;;;;;;;10.47;10.17;;;-2.40;99.90;;;;;;6230123;23;20198;-81
2024/01/12 04:42:15;;;;;;;11.00;10.70;;;-2.30;99.90;;;;;;6228813;23;20192;-81
2024/01/12 04:44:43;;;;;;;10.20;9.90;;;-2.20;99.90;;;;;;6230170;23;20206;-80
2024/01/12 04:47:10;;;;;;;10.67;10.37;;;-2.20;99.90;;;;;;6229997;22;20204;-80
2024/01/12 04:49:38;;;;;;;10.23;9.93;;;-2.20;99.90;;;;;;6230228;23;20655;-81
2024/01/12 04:52:06;;;;;;;10.63;10.33;;;-2.20;99.90;;;;;;6229503;23;20197;-81
2024/01/12 04:54:33;;;;;;;10.23;9.93;;;-2.20;99.90;;;;;;6229185;23;20205;-81
2024/01/12 04:57:02;;;;;;;10.30;10.00;;;-2.10;99.90;;;;;;6229445;22;20205;-81
2024/01/12 04:59:29;;;;;;;10.00;9.70;;;-2.00;99.90;;;;;;6230182;23;20195;-81
2024/01/12 05:01:57;;;;;;;10.30;10.00;;;-2.00;99.90;;;;;;6230670;23;20201;-81
2024/01/12 05:04:24;;;;;;;10.27;9.97;;;-1.90;99.90;;;;;;6230469;23;20194;-83
2024/01/12 05:06:51;;;;;;;10.10;9.80;;;-1.80;99.90;;;;;;6229339;22;20199;-81
2024/01/12 05:09:22;;;;;;;10.40;10.10;;;-1.80;99.90;;;;;;6229705;23;20225;-81
2024/01/12 05:11:50;;;;;;;10.30;10.00;;;-1.70;99.90;;;;;;6229814;23;20210;-80
2024/01/12 05:14:18;;;;;;;10.07;9.77;;;-1.80;99.90;;;;;;6229937;23;20283;-80
2024/01/12 05:16:46;;;;;;;10.57;10.27;;;-1.80;99.90;;;;;;6230407;22;20209;-80
2024/01/12 05:19:13;;;;;;;10.43;10.13;;;-1.70;99.90;;;;;;6235386;23;20221;-81
2024/01/12 05:21:40;;;;;;;10.20;9.90;;;-1.60;99.90;;;;;;6231195;23;20211;-81
2024/01/12 05:24:08;;;;;;;10.60;10.30;;;-1.60;99.90;;;;;;6237148;23;20225;-80
2024/01/12 05:26:36;;;;;;;10.27;9.97;;;-1.50;99.90;;;;;;6230608;22;20201;-81
2024/01/12 05:29:04;;;;;;;10.50;10.20;;;-1.40;99.90;;;;;;6229137;23;20224;-81
2024/01/12 05:31:33;;;;;;;10.30;10.00;;;-1.40;99.90;;;;;;6230291;23;20234;-82
2024/01/12 05:34:00;;;;;;;10.07;9.77;;;-1.40;99.90;;;;;;6230349;23;20225;-80
2024/01/12 05:36:27;;;;;;;10.50;10.20;;;-1.40;99.90;;;;;;6230313;22;20195;-80
2024/01/12 05:38:54;;;;;;;10.67;10.37;;;-1.50;99.90;;;;;;6228694;23;20193;-80
2024/01/12 05:41:21;;;;;;;11.03;10.73;;;-1.60;99.90;;;;;;6231181;23;20252;-81
2024/01/12 05:43:49;;;;;;;10.23;9.93;;;-1.60;99.90;;;;;;6230515;23;20200;-81
2024/01/12 05:46:17;;;;;;;10.50;10.20;;;-1.50;99.90;;;;;;6229777;23;20191;-81
2024/01/12 05:48:46;;;;;;;10.87;10.57;;;-1.50;99.90;;;;;;6230065;22;20213;-83
2024/01/12 05:51:13;;;;;;;10.63;10.33;;;-1.70;99.90;;;;;;6229911;23;20202;-82
2024/01/12 05:53:41;;;;;;;10.67;10.37;;;-1.80;99.90;;;;;;6229647;23;20250;-82
2024/01/12 05:56:08;;;;;;;10.70;10.40;;;-1.70;99.90;;;;;;6230056;23;20198;-81
2024/01/12 05:58:36;;;;;;;10.53;10.23;;;-1.60;99.90;;;;;;6228574;22;20225;-82
2024/01/12 06:01:03;;;;;;;10.80;10.50;;;-1.60;99.90;;;;;;6229521;23;20194;-81
2024/01/12 06:03:30;;;;;;;10.70;10.40;;;-1.50;99.90;;;;;;6237680;22;20221;-82
2024/01/12 06:05:59;;;;;;;10.57;10.27;;;-1.50;99.90;;;;;;6231312;23;20260;-82
2024/01/12 06:08:26;;;;;;;10.40;10.10;;;-1.50;99.90;;;;;;6231005;22;20210;-82
2024/01/12 06:10:54;;;;;;;10.67;10.37;;;-1.50;99.90;;;;;;6232447;23;20222;-82
2024/01/12 06:13:21;;;;;;;10.30;10.00;;;-1.50;99.90;;;;;;6231587;23;20335;-81
2024/01/12 06:15:48;;;;;;;10.63;10.33;;;-1.70;99.90;;;;;;6229254;23;20194;-82
2024/01/12 06:18:15;;;;;;;10.30;10.00;;;-1.70;99.90;;;;;;6228754;22;20207;-82
2024/01/12 06:20:43;;;;;;;10.53;10.23;;;-1.70;99.90;;;;;;6229417;23;20229;-83
2024/01/12 06:23:11;;;;;;;10.60;10.30;;;-1.70;99.90;;;;;;6231457;23;20290;-83
2024/01/12 06:25:39;;;;;;;10.30;10.00;;;-1.60;99.90;;;;;;6231693;23;20194;-82
2024/01/12 06:28:07;;;;;;;10.47;10.17;;;-1.50;99.90;;;;;;6229753;22;20210;-82
2024/01/12 06:30:34;;;;;;;10.27;9.97;;;-1.50;99.90;;;;;;6241893;23;20198;-81
2024/01/12 06:33:01;;;;;;;10.60;10.30;;;-1.50;99.90;;;;;;6235526;23;20209;-81
2024/01/12 06:35:28;;;;;;;10.60;10.30;;;-1.70;99.90;;;;;;6234863;23;20205;-82
2024/01/12 06:37:57;;;;;;;10.90;10.60;;;-1.70;99.90;;;;;;6231786;22;20201;-82
2024/01/12 06:40:25;;;;;;;10.57;10.27;;;-1.70;99.90;;;;;;6230683;23;20225;-82
2024/01/12 06:42:53;;;;;;;10.97;10.67;;;-1.60;99.90;;;;;;6230712;23;20253;-82
2024/01/12 06:45:21;;;;;;;10.80;10.50;;;-1.60;99.90;;;;;;6230809;23;20209;-82
2024/01/12 06:47:48;;;;;;;10.47;10.17;;;-1.60;99.90;;;;;;6229513;22;20288;-82
2024/01/12 06:50:16;;;;;;;10.83;10.53;;;-1.50;99.90;;;;;;6228962;23;20213;-82
2024/01/12 06:52:43;;;;;;;10.40;10.10;;;-1.40;99.90;;;;;;6229428;23;20199;-81
2024/01/12 06:55:10;;;;;;;10.27;9.97;;;-1.30;99.90;;;;;;6228737;23;20218;-82
2024/01/12 06:57:43;;;;;;;10.50;10.20;;;-1.30;99.90;;;;;;6228343;22;20207;-83
2024/01/12 07:00:12;;;;;;;10.60;10.30;;;-1.40;99.90;;;;;;6227761;23;20214;-82
2024/01/12 07:02:39;;;;;;;10.60;10.30;;;-1.40;99.90;;;;;;6228133;23;20206;-82
2024/01/12 07:05:08;;;;;;;10.90;10.60;;;-1.60;99.90;;;;;;6228390;23;20198;-81
2024/01/12 07:07:35;;;;;;;11.23;10.83;;;-1.70;99.90;;;;;;6228486;22;20210;-82
2024/01/12 07:10:03;;;;;;;11.07;10.77;;;-1.70;99.90;;;;;;6230486;23;20245;-81
2024/01/12 07:12:30;;;;;;;10.70;10.40;;;-1.60;99.90;;;;;;6242692;23;21024;-81
2024/01/12 07:14:59;;;;;;;10.80;10.50;;;-1.70;99.90;;;;;;6239945;23;20200;-81
2024/01/12 07:17:26;;;;;;;10.40;10.10;;;-1.80;99.90;;;;;;6242231;22;20197;-81
2024/01/12 07:19:53;;;;;;;10.80;10.50;;;-1.90;99.90;;;;;;6245982;23;20194;-82
2024/01/12 07:22:20;;;;;;;10.63;10.33;;;-1.80;99.90;;;;;;6246041;23;20253;-81
2024/01/12 07:24:48;;;;;;;11.27;10.87;;;-1.70;99.90;;;;;;6244705;23;20190;-83
2024/01/12 07:27:16;;;;;;;10.57;10.27;;;-1.80;99.90;;;;;;6232852;22;20208;-82
2024/01/12 07:29:43;;;;;;;11.17;10.80;;;-1.70;99.90;;;;;;6231273;23;20189;-82
2024/01/12 07:32:12;;;;;;;11.00;10.70;;;-1.70;99.90;;;;;;6232002;23;20264;-81
2024/01/12 07:34:39;;;;;;;10.47;10.17;;;-1.70;99.90;;;;;;6232105;23;20198;-81
2024/01/12 07:37:07;;;;;;;10.67;10.37;;;-1.60;99.90;;;;;;6231528;22;20209;-82
2024/01/12 07:39:35;;;;;;;10.73;10.43;;;-1.50;99.90;;;;;;6230794;23;20277;-82
2024/01/12 07:42:02;;;;;;;10.43;10.13;;;-1.40;99.90;;;;;;6231604;23;20199;-82
2024/01/12 07:44:29;;;;;;;10.70;10.40;;;-1.40;99.90;;;;;;6231466;23;20256;-81
2024/01/12 07:46:57;;;;;;;10.33;10.03;;;-1.40;99.90;;;;;;6230261;22;20268;-82
2024/01/12 07:49:26;;;;;;;10.37;10.07;;;-1.40;99.90;;;;;;6230938;23;20205;-82
2024/01/12 07:51:53;;;;;;;9.60;9.30;;;-1.40;99.90;;;;;;6230865;23;20202;-82
2024/01/12 07:54:20;;;;;;;10.33;10.03;;;-1.30;99.90;;;;;;6230324;23;20204;-82
2024/01/12 07:56:47;;;;;;;10.03;9.73;;;-1.30;99.90;;;;;;6229726;22;20198;-82
2024/01/12 07:59:14;;;;;;;10.23;9.93;;;-1.30;99.90;;;;;;6229297;23;20228;-82
2024/01/12 08:01:43;;;;;;;10.27;9.97;;;-1.30;99.90;;;;;;6229265;23;20245;-82
2024/01/12 08:04:10;;;;;;;10.20;9.90;;;-1.20;99.90;;;;;;6229184;23;20190;-82
2024/01/12 08:06:39;;;;;;;10.63;10.33;;;-1.20;99.90;;;;;;6229602;22;20201;-82
2024/01/12 08:09:06;;;;;;;10.47;10.17;;;-1.20;99.90;;;;;;6230691;23;20198;-82
2024/01/12 08:11:33;;;;;;;10.57;10.27;;;-1.20;99.90;;;;;;6233411;23;20221;-82
2024/01/12 08:14:00;;;;;;;10.30;10.00;;;-1.20;99.90;;;;;;6230778;23;20211;-82
2024/01/12 08:16:29;;;;;;;10.20;9.90;;;-1.10;99.90;;;;;;6230316;22;20203;-82
2024/01/12 08:18:56;;;;;;;10.17;9.87;;;-1.10;99.90;;;;;;6229960;23;20206;-83
2024/01/12 08:21:24;;;;;;;10.00;9.70;;;-1.10;99.90;;;;;;6230133;23;20225;-82
2024/01/12 08:23:52;;;;;;;9.90;9.60;;;-1.10;99.90;;;;;;6230294;23;20187;-82
2024/01/12 08:26:21;;;;;;;10.50;10.20;;;-1.10;99.90;;;;;;6228994;22;20203;-82
2024/01/12 08:28:51;;;;;;;10.20;9.90;;;-1.00;99.90;;;;;;6229343;23;20198;-82
2024/01/12 08:31:18;;;;;;;10.20;9.90;;;-1.10;99.90;;;;;;6229868;23;20189;-82
2024/01/12 08:33:48;;;;;;;10.50;10.20;;;-1.20;99.90;;;;;;6229749;23;20210;-82
2024/01/12 08:36:17;;;;;;;10.13;9.83;;;-1.30;99.90;;;;;;6230070;23;20206;-83
2024/01/12 08:38:44;;;;;;;10.20;9.90;;;-1.40;99.90;;;;;;6229320;23;20257;-82
2024/01/12 08:41:12;;;;;;;9.80;9.50;;;-1.40;99.90;;;;;;6229930;23;20202;-82
2024/01/12 08:43:41;;;;;;;10.20;9.90;;;-1.40;99.90;;;;;;6230670;23;20275;-82
2024/01/12 08:46:08;;;;;;;10.50;10.20;;;-1.50;99.90;;;;;;6237411;23;20210;-83
2024/01/12 08:48:36;;;;;;;10.17;9.87;;;-1.50;99.90;;;;;;6230398;22;20203;-83
2024/01/12 08:51:03;;;;;;;10.20;9.90;;;-1.50;99.90;;;;;;6230244;23;20202;-83
2024/01/12 08:53:30;;;;;;;10.00;9.70;;;-1.40;99.90;;;;;;6230003;23;20256;-81
2024/01/12 08:55:58;;;;;;;9.97;9.67;;;-1.30;99.90;;;;;;6229734;23;20220;-81
2024/01/12 08:58:26;;;;;;;9.97;9.67;;;-1.20;99.90;;;;;;6230165;22;20210;-81
2024/01/12 09:00:53;;;;;;;9.97;9.67;;;-1.20;99.90;;;;;;6230855;23;20217;-81
2024/01/12 09:03:21;;;;;;;9.77;9.47;;;-1.10;99.90;;;;;;6230842;23;20198;-81
2024/01/12 09:05:48;;;;;;;10.03;9.73;;;-1.10;99.90;;;;;;6229756;23;20202;-81
2024/01/12 09:08:16;;;;;;;10.00;9.70;;;-1.10;99.90;;;;;;6230488;22;20203;-81
2024/01/12 09:10:43;;;;;;;10.27;9.97;;;-1.00;99.90;;;;;;6229659;23;20198;-81
2024/01/12 09:13:11;;;;;;;10.23;9.93;;;-0.90;99.90;;;;;;6229663;23;20213;-82
2024/01/12 09:15:39;;;;;;;9.90;9.60;;;-0.90;99.90;;;;;;6230165;23;20198;-81
2024/01/12 09:18:08;;;;;;;10.33;10.03;;;-0.90;99.90;;;;;;6229899;22;20213;-81
2024/01/12 09:20:35;;;;;;;10.23;9.93;;;-0.90;99.90;;;;;;6230036;23;20204;-81
2024/01/12 09:23:04;;;;;;;10.13;9.83;;;-0.90;99.90;;;;;;6229860;23;20194;-81
2024/01/12 09:25:32;;;;;;;10.30;10.00;;;-0.90;99.90;;;;;;6229087;23;20217;-81
2024/01/12 09:28:21;;;;;;;10.13;9.83;;;-0.90;99.90;;;;;;6230310;22;20258;-83
2024/01/12 09:30:52;;;;;;;10.13;9.83;;;-0.90;99.90;;;;;;6230628;23;20202;-82
2024/01/12 09:33:41;;;;;;;10.70;10.40;;;-0.90;99.90;;;;;;6230960;23;20210;-81
2024/01/12 09:36:14;;;;;;;10.30;10.00;;;-0.90;99.90;;;;;;6231799;23;20203;-83
2024/01/12 09:38:52;;;;;;;9.97;9.67;;;-0.80;99.90;;;;;;6232313;22;20205;-83
2024/01/12 09:41:54;;;;;;;10.23;9.93;;;-0.80;99.90;;;;;;6230232;23;20202;-83
2024/01/12 09:44:38;;;;;;;10.20;9.90;;;-0.80;99.90;;;;;;6230838;23;20657;-83
2024/01/12 09:47:14;;;;;;;10.20;9.90;;;-0.80;99.90;;;;;;6230004;22;20210;-83
2024/01/12 09:49:48;;;;;;;9.80;9.50;;;-0.80;99.90;;;;;;6231329;23;20214;-83
2024/01/12 09:52:18;;;;;;;9.70;9.40;;;-0.80;99.90;;;;;;6230198;23;20561;-83
2024/01/12 09:54:45;;;;;;;9.80;9.50;;;-0.80;99.90;;;;;;6228629;23;20229;-83
2024/01/12 09:57:13;;;;;;;9.97;9.67;;;-0.70;99.90;;;;;;6228831;22;20207;-83
2024/01/12 10:00:24;;;;;;;10.13;9.83;;;-0.70;99.90;;;;;;6230299;23;20210;-82
2024/01/12 10:03:13;;;;;;;10.27;9.97;;;-0.60;99.90;;;;;;6229798;23;20221;-83
2024/01/12 10:06:11;;;;;;;10.10;9.80;;;-0.50;99.90;;;;;;6230055;23;20198;-82
2024/01/12 10:08:56;;;;;;;9.50;9.20;;;-0.50;99.90;;;;;;6231382;22;20218;-83
2024/01/12 10:11:28;;;;;;;9.73;9.43;;;-0.50;99.90;;;;;;6231079;23;20195;-82
2024/01/12 10:13:58;;;;;;;10.03;9.73;;;-0.50;99.90;;;;;;6230856;23;20254;-81
2024/01/12 10:16:28;;;;;;;10.23;9.93;;;-0.50;99.90;;;;;;6230398;22;20206;-81
2024/01/12 10:18:57;;;;;;;9.90;9.60;;;-0.50;99.90;;;;;;6229101;23;20201;-81
2024/01/12 10:21:25;;;;;;;9.93;9.63;;;-0.60;99.90;;;;;;6229434;23;20213;-81
2024/01/12 10:24:01;;;;;;;9.93;9.63;;;-0.60;99.90;;;;;;6228992;23;20251;-83
2024/01/12 10:26:29;;;;;;;10.20;9.90;;;-0.60;99.90;;;;;;6228948;22;20282;-81
2024/01/12 10:28:56;;;;;;;10.23;9.93;;;-0.60;99.90;;;;;;6229237;23;20237;-81
2024/01/12 10:31:23;;;;;;;10.20;9.90;;;-0.60;99.90;;;;;;6229041;23;20202;-81
2024/01/12 10:33:52;;;;;;;9.93;9.63;;;-0.60;99.90;;;;;;6229083;23;20210;-81
2024/01/12 10:36:22;;;;;;;9.93;9.63;;;-0.60;99.90;;;;;;6230860;22;20198;-83
2024/01/12 10:38:51;;;;;;;9.97;9.67;;;-0.50;99.90;;;;;;6229754;23;20182;-82
2024/01/12 10:41:22;;;;;;;9.73;9.43;;;-0.60;99.90;;;;;;6228886;23;20195;-80
2024/01/12 10:43:53;;;;;;;9.80;9.50;;;-0.70;99.90;;;;;;6229307;23;20283;-82
2024/01/12 10:46:33;;;;;;;9.90;9.60;;;-0.60;99.90;;;;;;6229251;22;20202;-81
2024/01/12 10:49:08;;;;;;;9.90;9.60;;;-0.60;99.90;;;;;;6228944;23;20205;-81
2024/01/12 10:51:40;;;;;;;10.10;9.80;;;-0.70;99.90;;;;;;6229238;23;20190;-81
2024/01/12 10:54:15;;;;;;;9.97;9.67;;;-0.70;99.90;;;;;;6231626;23;20203;-84
2024/01/12 10:56:43;;;;;;;10.00;9.70;;;-0.70;99.90;;;;;;6230997;22;20274;-82
2024/01/12 10:59:11;;;;;;;9.97;9.67;;;-0.70;99.90;;;;;;6231248;23;20209;-81
2024/01/12 11:01:40;;;;;;;9.90;9.60;;;-0.80;99.90;;;;;;6229413;23;20310;-82
2024/01/12 11:04:07;;;;;;;9.73;9.43;;;-0.80;99.90;;;;;;6230004;23;20199;-82
2024/01/12 11:06:38;;;;;;;9.77;9.47;;;-0.80;99.90;;;;;;6228314;22;20202;-82
2024/01/12 11:09:09;;;;;;;9.90;9.60;;;-0.70;99.90;;;;;;6229030;23;20191;-83
2024/01/12 11:11:44;;;;;;;9.77;9.47;;;-0.70;99.90;;;;;;6228803;23;20198;-81
2024/01/12 11:14:12;;;;;;;10.00;9.70;;;-0.70;99.90;;;;;;6229155;23;20260;-81
2024/01/12 11:16:40;;;;;;;10.10;9.80;;;-0.60;99.90;;;;;;6229339;22;20202;-81
2024/01/12 11:19:13;;;;;;;9.83;9.53;;;-0.70;99.90;;;;;;6229733;23;20201;-81
2024/01/12 11:21:42;;;;;;;10.10;9.80;;;-0.70;99.90;;;;;;6229833;23;20194;-83
2024/01/12 11:24:11;;;;;;;9.77;9.47;;;-0.70;99.90;;;;;;6231599;23;20229;-83
2024/01/12 11:26:41;;;;;;;9.90;9.60;;;-0.60;99.90;;;;;;6233950;22;20225;-81
2024/01/12 11:29:14;;;;;;;9.60;9.30;;;-0.70;99.90;;;;;;6231364;23;20191;-83
2024/01/12 11:31:50;;;;;;;10.10;9.80;;;-0.60;99.90;;;;;;6230173;23;20257;-81
2024/01/12 11:34:18;;;;;;;9.90;9.60;;;-0.50;99.90;;;;;;6229543;23;20211;-81
2024/01/12 11:36:58;;;;;;;10.33;10.03;;;-0.50;99.90;;;;;;6238400;22;20295;-81
2024/01/12 11:39:26;;;;;;;9.70;9.40;;;-0.40;99.90;;;;;;6234583;23;20289;-81
2024/01/12 11:41:56;;;;;;;10.07;9.77;;;-0.40;99.90;;;;;;6231200;23;20199;-81
2024/01/12 11:44:24;;;;;;;10.20;9.90;;;-0.50;99.90;;;;;;6231858;23;20194;-82
2024/01/12 11:47:15;;;;;;;9.63;9.33;;;-0.50;99.90;;;;;;6226704;22;20260;-87
2024/01/12 11:50:32;;;;;;;9.63;9.33;;;-0.50;99.90;;;;;;6197862;23;20233;-86
2024/01/12 11:53:38;;;;;;;;;;;;;;;;;;;;;
2024/01/12 11:56:22;;;;;;;;;;;;;;;;;;;;;
2024/01/12 11:59:13;;;;;;;;;;;;;;;;;;;;;
2024/01/12 12:01:55;;;;;;;9.80;9.50;;;-0.60;99.90;;;;;;6197977;23;20199;-86
2024/01/12 12:15:13;;;;;;;9.53;9.23;;;-0.60;99.90;;;;;;6096988;23;20194;-82
2024/01/12 12:18:11;;;;;;;;;;;;;;;;;;;;;
2024/01/12 12:21:21;;;;;;;10.10;9.80;;;-0.60;99.90;;;;;;6202003;23;20195;-85
2024/01/12 12:24:07;;;;;;;10.17;9.87;;;-0.70;99.90;;;;;;6229892;23;20195;-84
2024/01/12 12:27:22;;;;;;;10.40;10.10;;;-0.80;99.90;;;;;;6230181;23;20190;-84
2024/01/12 12:31:14;;;;;;;10.03;9.73;;;-0.90;99.90;;;;;;6109076;23;20209;-84
2024/01/12 12:34:01;;;;;;;10.30;10.00;;;-0.90;99.90;;;;;;6229346;23;20209;-85
2024/01/12 12:37:18;;;;;;;10.07;9.77;;;-0.80;99.90;;;;;;6228765;23;20211;-84
2024/01/12 12:43:45;;;;;;;;;;;;;;;;;;;;;
2024/01/12 12:49:27;;;;;;;10.20;9.90;;;-1.00;99.90;;;;;;6227866;22;20213;-84
2024/01/12 12:55:09;;;;;;;10.13;9.83;;;-1.10;99.90;;;;;;6226252;23;20209;-85
2024/01/12 12:57:48;;;;;;;10.53;10.23;;;-1.10;99.90;;;;;;6227607;22;20201;-85
2024/01/12 13:00:36;;;;;;;10.20;9.90;;;-1.20;99.90;;;;;;6237656;22;20186;-83
2024/01/12 13:03:13;;;;;;;10.07;9.77;;;-1.20;99.90;;;;;;6250439;22;20175;-83
2024/01/12 13:06:09;;;;;;;;;;;;;;;;;;;;;
2024/01/12 13:09:12;;;;;;;9.90;9.60;;;-1.10;99.90;;;;;;6232152;22;20296;-84
2024/01/12 13:12:03;;;;;;;10.03;9.73;;;-1.00;99.90;;;;;;6224637;23;20209;-85
2024/01/12 13:14:50;;;;;;;10.47;10.17;;;-1.10;99.90;;;;;;6227028;23;20202;-86
2024/01/12 13:17:31;;;;;;;10.50;10.20;;;-1.00;99.90;;;;;;6227043;22;20222;-86
2024/01/12 13:23:28;;;;;;;9.67;9.37;;;-1.00;99.90;;;;;;6223674;23;20203;-86